Time;durP1;ratioP1;P1;durP2;ratioP2;P2;SDS_P1;SDS_P2;PMS_P1;PMS_P2;Temp;Humidity;BMP_temperature;BMP_pressure;BME280_temperature;BME280_humidity;BME280_pressure;Samples;Min_cycle;Max_cycle;Signal;HPM_P1;HPM_P2
2023/03/29 00:01:31;;;;;;;;;;;;;;;29.60;23.03;100778.09;5088653;28;1079;-18
2023/03/29 00:03:57;;;;;;;;;;;;;;;29.70;22.78;100770.47;5089722;28;1914;-18
2023/03/29 00:06:22;;;;;;;;;;;;;;;29.88;22.67;100780.78;5075738;28;1046;-19
2023/03/29 00:08:52;;;;;;;;;;;;;;;30.00;22.53;100777.47;5093909;28;1098;-18
2023/03/29 00:11:18;;;;;;;;;;;;;;;29.36;23.16;100786.50;5084756;28;1182;-18
2023/03/29 00:13:44;;;;;;;;;;;;;;;29.22;23.52;100785.56;5080933;28;1007;-18
2023/03/29 00:16:11;;;;;;;;;;;;;;;29.27;23.29;100783.09;5095832;28;1031;-19
2023/03/29 00:18:37;;;;;;;;;;;;;;;29.37;23.26;100780.03;5082543;28;1166;-18
2023/03/29 00:21:03;;;;;;;;;;;;;;;29.64;22.91;100780.25;5095935;28;1093;-19
2023/03/29 00:23:28;;;;;;;;;;;;;;;29.86;22.54;100784.72;5077252;28;1193;-18
2023/03/29 00:25:54;;;;;;;;;;;;;;;30.02;22.64;100792.53;5075713;28;1980;-19
2023/03/29 00:28:19;;;;;;;;;;;;;;;29.60;22.92;100783.53;5076875;28;1194;-18
2023/03/29 00:30:45;;;;;;;;;;;;;;;28.94;23.70;100787.19;5096427;28;1105;-17
2023/03/29 00:33:11;;;;;;;;;;;;;;;29.50;23.23;100792.84;5082798;28;1194;-18
2023/03/29 00:35:37;;;;;;;;;;;;;;;29.65;23.09;100786.47;5095975;28;1109;-17
2023/03/29 00:38:04;;;;;;;;;;;;;;;29.72;23.09;100792.78;5095237;28;1019;-18
2023/03/29 00:40:31;;;;;;;;;;;;;;;29.96;22.89;100801.47;5096454;28;1074;-18
2023/03/29 00:42:57;;;;;;;;;;;;;;;30.03;22.65;100794.19;5082470;28;1119;-18
2023/03/29 00:45:29;;;;;;;;;;;;;;;29.03;23.71;100798.72;5077688;28;1905;-19
2023/03/29 00:47:59;;;;;;;;;;;;;;;29.18;23.79;100801.34;5082644;28;1142;-18
2023/03/29 00:50:30;;;;;;;;;;;;;;;29.08;23.90;100796.28;5047464;28;1075;-18
2023/03/29 00:53:01;;;;;;;;;;;;;;;29.28;23.41;100792.06;5077782;28;1090;-17
2023/03/29 00:55:28;;;;;;;;;;;;;;;29.56;23.38;100805.59;5082206;28;1493;-18
2023/03/29 00:57:54;;;;;;;;;;;;;;;29.80;22.85;100799.91;5087478;28;1102;-19
2023/03/29 01:00:21;;;;;;;;;;;;;;;30.02;22.65;100807.97;5090947;28;941;-21
2023/03/29 01:02:49;;;;;;;;;;;;;;;29.07;23.91;100812.72;5069132;28;1008;-18
2023/03/29 01:05:25;;;;;;;;;;;;;;;29.33;23.66;100812.09;5058401;28;1910;-17
2023/03/29 01:08:02;;;;;;;;;;;;;;;29.56;23.24;100813.72;5051618;28;1127;-18
2023/03/29 01:10:35;;;;;;;;;;;;;;;29.67;23.07;100814.25;5055984;28;1202;-18
2023/03/29 01:13:02;;;;;;;;;;;;;;;29.91;22.90;100820.22;5054351;28;1084;-18
2023/03/29 01:15:28;;;;;;;;;;;;;;;29.97;22.80;100821.28;5077218;28;1185;-18
2023/03/29 01:17:56;;;;;;;;;;;;;;;29.92;22.27;100824.59;5061202;28;1135;-17
2023/03/29 01:20:29;;;;;;;;;;;;;;;29.15;23.67;100825.28;5075964;28;1178;-18
2023/03/29 01:23:02;;;;;;;;;;;;;;;29.31;23.42;100830.41;5071602;28;1276;-19
2023/03/29 01:25:33;;;;;;;;;;;;;;;29.34;23.39;100826.50;5077703;28;1910;-19
2023/03/29 01:28:07;;;;;;;;;;;;;;;29.52;23.22;100834.13;5094607;28;1022;-18
2023/03/29 01:30:37;;;;;;;;;;;;;;;29.72;23.21;100838.03;5061399;28;1104;-18
2023/03/29 01:33:10;;;;;;;;;;;;;;;29.96;22.83;100830.47;5061484;28;1070;-19
2023/03/29 01:35:43;;;;;;;;;;;;;;;29.93;22.11;100832.53;5061613;28;1193;-19
2023/03/29 01:38:12;;;;;;;;;;;;;;;28.73;23.95;100829.47;5079820;28;1182;-18
2023/03/29 01:40:37;;;;;;;;;;;;;;;29.46;23.55;100835.75;5099109;28;1026;-18
2023/03/29 01:43:03;;;;;;;;;;;;;;;29.67;23.18;100836.78;5098910;28;1121;-18
2023/03/29 01:45:41;;;;;;;;;;;;;;;29.81;23.05;100845.81;5076852;28;1910;-17
2023/03/29 01:48:15;;;;;;;;;;;;;;;29.99;22.68;100847.19;5091003;28;1099;-18
2023/03/29 01:50:46;;;;;;;;;;;;;;;29.84;22.29;100850.00;5063356;28;1105;-19
2023/03/29 01:53:23;;;;;;;;;;;;;;;29.21;23.35;100849.72;5080634;28;1055;-18
2023/03/29 01:55:50;;;;;;;;;;;;;;;29.28;23.62;100851.69;5094360;28;1053;-18
2023/03/29 01:58:15;;;;;;;;;;;;;;;29.25;23.48;100847.47;5072066;28;1215;-17
2023/03/29 02:00:42;;;;;;;;;;;;;;;29.48;23.34;100851.81;5080226;28;1062;-18
2023/03/29 02:03:08;;;;;;;;;;;;;;;29.73;22.86;100859.53;5065116;28;1306;-18
2023/03/29 02:05:34;;;;;;;;;;;;;;;29.90;22.90;100860.06;5071851;28;2006;-18
2023/03/29 02:08:00;;;;;;;;;;;;;;;29.89;22.25;100861.09;5068867;28;1115;-18
2023/03/29 02:10:26;;;;;;;;;;;;;;;28.77;24.06;100864.25;5063379;28;1221;-18
2023/03/29 02:12:51;;;;;;;;;;;;;;;29.37;23.49;100860.47;5078495;28;1007;-20
2023/03/29 02:15:18;;;;;;;;;;;;;;;29.57;23.20;100868.78;5071382;28;1151;-20
2023/03/29 02:17:43;;;;;;;;;;;;;;;29.70;23.09;100866.19;5058550;28;1042;-18
2023/03/29 02:20:13;;;;;;;;;;;;;;;29.87;22.91;100870.47;5062936;28;1046;-18
2023/03/29 02:22:45;;;;;;;;;;;;;;;29.99;22.82;100877.00;5076705;28;1135;-20
2023/03/29 02:25:11;;;;;;;;;;;;;;;29.91;22.04;100875.28;5070615;28;1914;-18
2023/03/29 02:27:37;;;;;;;;;;;;;;;29.08;23.18;100876.69;5070084;28;1110;-18
2023/03/29 02:30:04;;;;;;;;;;;;;;;29.33;23.39;100882.56;5063094;28;1155;-18
2023/03/29 02:32:34;;;;;;;;;;;;;;;29.39;23.40;100889.06;5077903;28;1042;-18
2023/03/29 02:35:01;;;;;;;;;;;;;;;29.54;23.24;100902.53;5064068;28;1052;-18
2023/03/29 02:37:29;;;;;;;;;;;;;;;29.77;22.76;100898.78;5062505;28;1210;-18
2023/03/29 02:39:55;;;;;;;;;;;;;;;29.89;22.54;100903.66;5054036;28;1197;-18
2023/03/29 02:42:20;;;;;;;;;;;;;;;29.91;21.79;100898.88;5056676;28;1163;-18
2023/03/29 02:44:47;;;;;;;;;;;;;;;28.67;24.04;100897.91;5064182;28;1975;-18
2023/03/29 02:47:32;;;;;;;;;;;;;;;29.36;23.12;100903.03;5077020;28;1101;-18
2023/03/29 02:49:58;;;;;;;;;;;;;;;29.50;22.74;100903.94;5065999;28;1340;-18
2023/03/29 02:52:26;;;;;;;;;;;;;;;29.65;22.56;100906.59;5072881;28;1333;-19
2023/03/29 02:54:53;;;;;;;;;;;;;;;29.81;22.32;100919.03;5075917;28;1111;-18
2023/03/29 02:57:25;;;;;;;;;;;;;;;29.82;22.42;100915.28;5075910;28;1495;-18
2023/03/29 02:59:51;;;;;;;;;;;;;;;29.81;21.72;100910.88;5075931;28;1216;-18
2023/03/29 03:02:17;;;;;;;;;;;;;;;29.77;21.82;100914.19;5073270;28;1125;-18
2023/03/29 03:04:43;;;;;;;;;;;;;;;29.99;22.22;100915.00;5066975;28;1918;-18
2023/03/29 03:07:09;;;;;;;;;;;;;;;29.99;21.71;100908.72;5064025;28;1150;-17
2023/03/29 03:09:34;;;;;;;;;;;;;;;29.13;23.09;100925.69;5077296;28;1074;-18
2023/03/29 03:12:00;;;;;;;;;;;;;;;28.98;23.17;100924.94;5062045;28;1150;-18
2023/03/29 03:14:27;;;;;;;;;;;;;;;28.92;23.38;100921.94;5076409;28;1014;-19
2023/03/29 03:16:56;;;;;;;;;;;;;;;29.04;23.34;100926.88;5071094;28;1304;-18
2023/03/29 03:19:22;;;;;;;;;;;;;;;29.06;22.44;100928.34;5067209;28;1193;-18
2023/03/29 03:21:49;;;;;;;;;;;;;;;28.08;23.73;100923.94;5061898;28;1193;-18
2023/03/29 03:24:16;;;;;;;;;;;;;;;28.07;24.02;100922.25;5075648;28;1980;-18
2023/03/29 03:26:45;;;;;;;;;;;;;;;28.30;23.58;100926.72;5070360;28;1308;-18
2023/03/29 03:29:11;;;;;;;;;;;;;;;28.24;23.77;100918.34;5068313;28;1315;-18
2023/03/29 03:32:06;;;;;;;;;;;;;;;27.90;24.17;100925.13;5054252;28;1394;-18
2023/03/29 03:35:01;;;;;;;;;;;;;;;27.39;19.68;100926.56;5019929;28;1321;-17
2023/03/29 03:37:27;;;;;;;;;;;;;;;25.34;19.55;100929.47;5063501;28;1269;-17
2023/03/29 03:39:52;;;;;;;;;;;;;;;25.23;23.90;100930.63;5059642;28;1138;-18
2023/03/29 03:42:18;;;;;;;;;;;;;;;25.84;21.80;100924.13;5075288;28;1335;-17
2023/03/29 03:44:44;;;;;;;;;;;;;;;26.49;20.87;100938.47;5061643;28;1891;-18
2023/03/29 03:47:31;;;;;;;;;;;;;;;26.79;20.40;100932.47;5060521;28;1379;-17
2023/03/29 03:50:10;;;;;;;;;;;;;;;26.96;19.84;100951.28;5063051;28;1389;-19
2023/03/29 03:52:37;;;;;;;;;;;;;;;27.02;20.03;100950.59;5063515;28;1363;-18
2023/03/29 03:55:03;;;;;;;;;;;;;;;27.28;21.53;100949.41;5066898;28;1421;-18
2023/03/29 03:57:40;;;;;;;;;;;;;;;27.05;21.33;100949.38;5074943;28;1221;-18
2023/03/29 04:00:20;;;;;;;;;;;;;;;26.67;22.73;100941.97;5066936;28;1053;-16
2023/03/29 04:02:58;;;;;;;;;;;;;;;27.49;21.97;100947.94;5071648;28;1324;-19
2023/03/29 04:05:24;;;;;;;;;;;;;;;27.17;21.47;100947.97;5074679;28;1973;-18
2023/03/29 04:07:51;;;;;;;;;;;;;;;26.97;22.12;100951.09;5070726;28;1264;-19
2023/03/29 04:10:36;;;;;;;;;;;;;;;26.89;22.65;100946.56;5055029;28;1467;-19
2023/03/29 04:13:14;;;;;;;;;;;;;;;26.53;23.04;100947.91;5068575;28;1414;-19
2023/03/29 04:16:00;;;;;;;;;;;;;;;26.73;22.99;100949.34;5059409;28;1017;-18
2023/03/29 04:18:26;;;;;;;;;;;;;;;27.20;22.52;100960.28;5056411;28;1229;-20
2023/03/29 04:20:55;;;;;;;;;;;;;;;27.34;22.53;100959.50;5075109;28;1586;-19
2023/03/29 04:23:22;;;;;;;;;;;;;;;27.13;22.67;100958.28;5074791;28;1198;-20
2023/03/29 04:25:48;;;;;;;;;;;;;;;26.50;23.71;100960.91;5065834;28;1976;-20
2023/03/29 04:28:32;;;;;;;;;;;;;;;26.96;23.15;100965.59;5064343;28;833;-18
2023/03/29 04:31:12;;;;;;;;;;;;;;;27.16;22.69;100967.06;5054994;28;1161;-18
2023/03/29 04:34:16;;;;;;;;;;;;;;;27.34;22.60;100975.69;5014085;28;1387;-19
2023/03/29 04:36:43;;;;;;;;;;;;;;;27.56;22.19;100989.41;4997888;28;1069;-18
2023/03/29 04:39:16;;;;;;;;;;;;;;;27.41;22.59;100992.03;5026097;28;1175;-18
2023/03/29 04:41:43;;;;;;;;;;;;;;;26.29;22.81;100998.19;5060379;28;1877;-17
2023/03/29 04:44:20;;;;;;;;;;;;;;;26.53;21.92;100999.19;5065845;28;1910;-16
2023/03/29 04:46:45;;;;;;;;;;;;;;;26.50;21.07;101001.38;5069850;28;1306;-18
2023/03/29 04:49:17;;;;;;;;;;;;;;;26.47;20.23;101005.28;5067373;28;1078;-17
2023/03/29 04:51:47;;;;;;;;;;;;;;;26.50;20.05;101010.31;5059298;28;1212;-17
2023/03/29 04:54:15;;;;;;;;;;;;;;;26.45;19.71;101015.38;5056727;28;1202;-17
2023/03/29 04:56:59;;;;;;;;;;;;;;;26.39;19.11;101011.50;5069673;28;1012;-17
2023/03/29 05:00:12;;;;;;;;;;;;;;;26.55;19.00;101020.59;5064177;28;1399;-17
2023/03/29 05:03:10;;;;;;;;;;;;;;;26.67;18.60;101026.47;5056048;28;1652;-17
2023/03/29 05:05:40;;;;;;;;;;;;;;;26.96;18.18;101014.19;5075458;28;1906;-16
2023/03/29 05:08:06;;;;;;;;;;;;;;;26.95;18.30;101015.22;5057954;28;1258;-17
2023/03/29 05:10:52;;;;;;;;;;;;;;;27.14;17.95;101023.94;5065913;28;1244;-18
2023/03/29 05:13:17;;;;;;;;;;;;;;;26.91;17.93;101016.56;5060014;28;1297;-18
2023/03/29 05:15:43;;;;;;;;;;;;;;;25.95;18.82;101019.94;5060284;28;1305;-17
2023/03/29 05:18:09;;;;;;;;;;;;;;;26.34;19.26;101019.28;5058033;28;1582;-19
2023/03/29 05:20:36;;;;;;;;;;;;;;;26.23;18.04;101020.44;5068472;28;1327;-17
2023/03/29 05:23:02;;;;;;;;;;;;;;;25.13;18.87;101023.16;5061311;28;1299;-17
2023/03/29 05:25:47;;;;;;;;;;;;;;;26.15;19.49;101034.78;5058590;28;1902;-17
2023/03/29 05:28:13;;;;;;;;;;;;;;;26.61;18.20;101027.97;5057658;28;1250;-17
2023/03/29 05:30:39;;;;;;;;;;;;;;;26.52;18.68;101037.13;5075145;28;1504;-18
2023/03/29 05:33:15;;;;;;;;;;;;;;;27.06;18.45;101041.00;5078157;28;1181;-17
2023/03/29 05:35:41;;;;;;;;;;;;;;;27.35;19.05;101034.13;5065414;28;1050;-19
2023/03/29 05:38:07;;;;;;;;;;;;;;;26.61;21.63;101040.66;5077641;28;1210;-18
2023/03/29 05:40:34;;;;;;;;;;;;;;;26.08;21.28;101039.16;5066119;28;1155;-17
2023/03/29 05:43:18;;;;;;;;;;;;;;;26.74;21.99;101048.19;5072502;28;1174;-19
2023/03/29 05:45:44;;;;;;;;;;;;;;;27.00;22.71;101050.63;5057748;28;1906;-20
2023/03/29 05:48:10;;;;;;;;;;;;;;;27.22;22.97;101052.75;5070845;28;1148;-20
2023/03/29 05:50:39;;;;;;;;;;;;;;;27.61;23.23;101051.84;5057370;28;1715;-19
2023/03/29 05:53:05;;;;;;;;;;;;;;;26.67;24.64;101045.34;5070377;28;1288;-16
2023/03/29 05:55:31;;;;;;;;;;;;;;;26.62;24.77;101048.56;5057297;28;1511;-16
2023/03/29 05:57:57;;;;;;;;;;;;;;;26.90;24.02;101055.41;5067147;28;1014;-19
2023/03/29 06:00:30;;;;;;;;;;;;;;;27.01;23.39;101055.03;5074389;28;1927;-20
2023/03/29 06:03:13;;;;;;;;;;;;;;;27.22;22.94;101066.28;5076957;28;1508;-20
2023/03/29 06:05:39;;;;;;;;;;;;;;;27.65;22.52;101060.44;5070719;28;1910;-20
2023/03/29 06:08:05;;;;;;;;;;;;;;;27.35;22.77;101060.28;5073365;28;1853;-21
2023/03/29 06:10:59;;;;;;;;;;;;;;;26.48;24.43;101070.84;5064041;28;1154;-21
2023/03/29 06:13:45;;;;;;;;;;;;;;;26.94;23.60;101075.66;5077837;28;1158;-20
2023/03/29 06:16:12;;;;;;;;;;;;;;;27.22;23.24;101071.66;5071466;28;1283;-21
2023/03/29 06:18:38;;;;;;;;;;;;;;;27.43;22.75;101079.16;5059149;28;1094;-20
2023/03/29 06:21:05;;;;;;;;;;;;;;;27.74;22.51;101072.91;5074716;28;1210;-21
2023/03/29 06:23:30;;;;;;;;;;;;;;;27.91;22.37;101085.50;5078635;28;1037;-20
2023/03/29 06:25:56;;;;;;;;;;;;;;;26.77;24.24;101091.03;5076971;28;1975;-19
2023/03/29 06:28:23;;;;;;;;;;;;;;;26.52;24.57;101085.69;5076118;28;1510;-20
2023/03/29 06:30:49;;;;;;;;;;;;;;;27.29;24.18;101088.00;5076690;28;1210;-19
2023/03/29 06:33:19;;;;;;;;;;;;;;;27.30;23.61;101090.53;5067703;28;1129;-18
2023/03/29 06:35:45;;;;;;;;;;;;;;;27.49;22.71;101093.84;5075936;28;1094;-18
2023/03/29 06:38:14;;;;;;;;;;;;;;;27.72;22.03;101090.34;5064289;28;1217;-18
2023/03/29 06:40:59;;;;;;;;;;;;;;;27.14;22.61;101096.88;5064926;28;824;-20
2023/03/29 06:43:26;;;;;;;;;;;;;;;26.70;23.40;101095.44;5064911;28;1205;-20
2023/03/29 06:45:53;;;;;;;;;;;;;;;27.03;22.46;101103.47;5071350;28;1987;-20
2023/03/29 06:48:26;;;;;;;;;;;;;;;27.33;21.58;101103.69;5068540;28;1398;-20
2023/03/29 06:50:53;;;;;;;;;;;;;;;27.63;21.12;101101.16;5076045;28;1393;-23
2023/03/29 06:53:22;;;;;;;;;;;;;;;28.01;20.57;101099.59;5075941;28;1241;-20
2023/03/29 06:55:54;;;;;;;;;;;;;;;27.33;21.38;101097.44;5070694;28;1404;-21
2023/03/29 06:58:50;;;;;;;;;;;;;;;27.28;22.19;101099.84;5071550;28;1318;-18
2023/03/29 07:01:30;;;;;;;;;;;;;;;27.55;21.67;101100.38;5064924;28;1344;-20
2023/03/29 07:04:06;;;;;;;;;;;;;;;27.84;21.61;101098.88;5074965;28;1906;-18
2023/03/29 07:06:39;;;;;;;;;;;;;;;27.07;22.51;101098.56;5075851;28;1109;-20
2023/03/29 07:09:05;;;;;;;;;;;;;;;26.95;22.16;101098.91;5076049;28;1387;-18
2023/03/29 07:11:57;;;;;;;;;;;;;;;27.37;21.86;101091.53;5073652;28;1266;-18
2023/03/29 07:14:27;;;;;;;;;;;;;;;27.75;21.67;101092.69;5066310;28;1202;-18
2023/03/29 07:16:57;;;;;;;;;;;;;;;27.86;21.67;101108.47;5069501;28;1119;-19
2023/03/29 07:19:33;;;;;;;;;;;;;;;27.18;22.61;101121.63;5067875;28;1130;-18
2023/03/29 07:22:22;;;;;;;;;;;;;;;27.10;22.34;101119.81;5051704;28;1309;-17
2023/03/29 07:24:53;;;;;;;;;;;;;;;27.43;21.85;101126.94;5055125;28;1970;-17
2023/03/29 07:27:19;;;;;;;;;;;;;;;27.82;21.47;101106.31;5055376;28;1230;-17
2023/03/29 07:29:48;;;;;;;;;;;;;;;27.35;21.44;101117.88;5060416;28;1162;-17
2023/03/29 07:32:16;;;;;;;;;;;;;;;27.13;22.29;101123.00;5071202;28;1310;-18
2023/03/29 07:34:41;;;;;;;;;;;;;;;27.19;21.73;101123.34;5056726;28;1178;-18
2023/03/29 07:37:11;;;;;;;;;;;;;;;27.33;21.93;101106.38;5060602;28;1250;-19
2023/03/29 07:39:40;;;;;;;;;;;;;;;27.65;21.62;101119.06;5064004;28;1229;-19
2023/03/29 07:42:27;;;;;;;;;;;;;;;28.15;21.06;101116.91;5055745;28;1190;-17
2023/03/29 07:44:54;;;;;;;;;;;;;;;27.28;22.25;101126.84;5075318;28;1966;-19
2023/03/29 07:47:20;;;;;;;;;;;;;;;27.18;22.28;101130.59;5074190;28;1271;-17
2023/03/29 07:49:46;;;;;;;;;;;;;;;27.41;22.53;101124.41;5074782;28;1392;-17
2023/03/29 07:52:12;;;;;;;;;;;;;;;27.62;22.13;101131.06;5057787;28;1340;-18
2023/03/29 07:54:38;;;;;;;;;;;;;;;27.92;21.70;101127.72;5065003;28;1361;-18
2023/03/29 07:57:30;;;;;;;;;;;;;;;27.00;22.11;101133.47;5062173;28;1206;-20
2023/03/29 07:59:57;;;;;;;;;;;;;;;26.85;21.93;101142.28;5069559;28;1515;-20
2023/03/29 08:02:26;;;;;;;;;;;;;;;27.20;22.34;101133.13;5059617;28;1216;-20
2023/03/29 08:04:56;;;;;;;;;;;;;;;27.19;21.66;101135.00;5076229;28;1976;-20
2023/03/29 08:07:22;;;;;;;;;;;;;;;27.58;21.35;101132.44;5093494;28;1126;-19
2023/03/29 08:10:07;;;;;;;;;;;;;;;27.03;21.67;101130.47;5095923;28;1182;-20
2023/03/29 08:12:51;;;;;;;;;;;;;;;26.83;22.49;101122.72;5064877;28;1468;-20
2023/03/29 08:15:19;;;;;;;;;;;;;;;27.37;22.03;101126.66;5071332;28;1326;-18
2023/03/29 08:17:45;;;;;;;;;;;;;;;27.61;21.44;101122.13;5065759;28;1231;-20
2023/03/29 08:20:12;;;;;;;;;;;;;;;27.23;21.51;101130.06;5069347;28;1336;-21
2023/03/29 08:22:41;;;;;;;;;;;;;;;27.08;22.19;101124.53;5066077;28;1157;-18
2023/03/29 08:25:22;;;;;;;;;;;;;;;27.28;22.44;101130.38;5062466;28;1906;-19
2023/03/29 08:27:51;;;;;;;;;;;;;;;26.88;22.38;101122.19;5059286;28;1317;-20
2023/03/29 08:30:27;;;;;;;;;;;;;;;27.20;20.11;101115.06;5071501;28;1404;-18
2023/03/29 08:32:53;;;;;;;;;;;;;;;27.51;18.05;101116.09;5074258;28;1254;-18
2023/03/29 08:35:18;;;;;;;;;;;;;;;26.39;16.78;101105.91;5065379;28;1886;-17
2023/03/29 08:37:58;;;;;;;;;;;;;;;26.15;17.78;101112.97;5061145;28;1135;-19
2023/03/29 08:40:25;;;;;;;;;;;;;;;26.87;18.00;101113.28;5060992;28;1143;-17
2023/03/29 08:43:13;;;;;;;;;;;;;;;27.30;17.63;101108.59;5075375;28;1111;-17
2023/03/29 08:45:59;;;;;;;;;;;;;;;27.58;17.69;101113.53;5059861;28;1906;-18
2023/03/29 08:48:26;;;;;;;;;;;;;;;26.53;19.17;101101.69;5065508;28;1237;-17
2023/03/29 08:50:53;;;;;;;;;;;;;;;26.25;19.05;101109.25;5072905;28;1263;-18
2023/03/29 08:53:55;;;;;;;;;;;;;;;27.36;18.02;101110.63;5076606;28;1223;-17
2023/03/29 08:56:43;;;;;;;;;;;;;;;27.07;18.57;101107.53;4998259;28;1330;-18
2023/03/29 08:59:18;;;;;;;;;;;;;;;26.23;19.16;101103.19;5077001;28;1428;-17
2023/03/29 09:01:44;;;;;;;;;;;;;;;26.34;18.78;101102.88;5064001;28;1119;-18
2023/03/29 09:04:13;;;;;;;;;;;;;;;26.82;18.62;101112.97;5061058;28;1918;-18
2023/03/29 09:06:58;;;;;;;;;;;;;;;26.88;18.23;101109.56;5067525;28;1249;-17
2023/03/29 09:09:32;;;;;;;;;;;;;;;27.47;18.20;101121.03;5064919;28;1137;-18
2023/03/29 09:12:05;;;;;;;;;;;;;;;26.88;18.49;101120.34;5078485;28;1666;-18
2023/03/29 09:14:51;;;;;;;;;;;;;;;26.40;19.21;101107.63;5065383;28;1190;-17
2023/03/29 09:17:23;;;;;;;;;;;;;;;27.05;18.59;101119.50;5070975;28;1113;-18
2023/03/29 09:19:58;;;;;;;;;;;;;;;27.07;18.21;101122.88;5074114;28;1229;-17
2023/03/29 09:22:41;;;;;;;;;;;;;;;27.42;18.05;101120.72;5072983;28;1278;-20
2023/03/29 09:25:10;;;;;;;;;;;;;;;27.56;18.27;101121.00;5070664;28;1972;-20
2023/03/29 09:27:36;;;;;;;;;;;;;;;27.55;18.25;101130.09;5068813;28;1051;-19
2023/03/29 09:30:24;;;;;;;;;;;;;;;26.94;19.31;101134.19;5073686;28;1159;-20
2023/03/29 09:33:12;;;;;;;;;;;;;;;26.63;19.66;101144.69;5081295;28;1114;-20
2023/03/29 09:36:00;;;;;;;;;;;;;;;27.70;18.61;101135.63;5070527;28;1153;-19
2023/03/29 09:38:27;;;;;;;;;;;;;;;26.93;19.86;101136.03;5080728;28;1248;-20
2023/03/29 09:40:54;;;;;;;;;;;;;;;26.57;20.49;101133.72;5076478;28;1195;-20
2023/03/29 09:43:28;;;;;;;;;;;;;;;27.08;19.83;101132.63;5069217;28;1329;-19
2023/03/29 09:45:55;;;;;;;;;;;;;;;27.31;19.79;101135.44;5055873;28;1987;-19
2023/03/29 09:48:20;;;;;;;;;;;;;;;27.51;19.84;101125.03;5073193;28;1134;-20
2023/03/29 09:50:51;;;;;;;;;;;;;;;27.53;20.11;101129.44;5062036;28;1474;-20
2023/03/29 09:53:18;;;;;;;;;;;;;;;27.14;20.65;101122.00;5044717;28;1356;-20
2023/03/29 09:55:54;;;;;;;;;;;;;;;27.34;20.86;101128.84;5058335;28;1262;-20
2023/03/29 09:58:48;;;;;;;;;;;;;;;27.46;21.00;101121.22;5067539;28;1103;-20
2023/03/29 10:01:16;;;;;;;;;;;;;;;27.78;20.07;101113.13;5070921;28;1167;-19
2023/03/29 10:03:46;;;;;;;;;;;;;;;27.25;20.54;101122.63;5095128;28;1139;-21
2023/03/29 10:06:14;;;;;;;;;;;;;;;26.93;21.25;101117.13;5079765;28;1913;-20
2023/03/29 10:08:56;;;;;;;;;;;;;;;27.09;22.08;101112.75;5067046;28;1227;-20
2023/03/29 10:11:30;;;;;;;;;;;;;;;27.16;21.63;101124.50;5067463;28;1323;-20
2023/03/29 10:13:59;;;;;;;;;;;;;;;27.55;20.88;101120.13;5085509;28;1079;-19
2023/03/29 10:16:35;;;;;;;;;;;;;;;27.17;20.83;101112.72;5097818;28;1130;-19
2023/03/29 10:19:17;;;;;;;;;;;;;;;26.96;21.60;101122.19;5080209;28;1090;-20
2023/03/29 10:21:43;;;;;;;;;;;;;;;27.42;21.11;101115.31;5091604;28;1206;-19
2023/03/29 10:24:09;;;;;;;;;;;;;;;27.67;21.07;101126.00;5074059;28;1979;-20
2023/03/29 10:26:37;;;;;;;;;;;;;;;27.40;20.91;101128.16;5090605;28;1297;-21
2023/03/29 10:29:03;;;;;;;;;;;;;;;27.09;20.17;101124.38;5074065;28;1203;-20
2023/03/29 10:31:32;;;;;;;;;;;;;;;27.33;21.28;101121.75;5081258;28;1313;-19
2023/03/29 10:34:01;;;;;;;;;;;;;;;27.33;21.95;101122.59;5097828;28;1346;-19
2023/03/29 10:36:27;;;;;;;;;;;;;;;27.69;20.83;101112.31;5080598;28;1203;-20
2023/03/29 10:38:53;;;;;;;;;;;;;;;27.30;22.48;101125.66;5097942;28;1054;-20
2023/03/29 10:41:19;;;;;;;;;;;;;;;27.58;22.09;101119.78;5097951;28;1010;-20
2023/03/29 10:43:48;;;;;;;;;;;;;;;26.80;22.96;101063.69;5073913;28;1051;-20
2023/03/29 10:46:26;;;;;;;;;;;;;;;26.88;23.03;101111.41;5089439;28;1906;-19
2023/03/29 10:48:56;;;;;;;;;;;;;;;27.38;22.09;101122.91;5097006;28;995;-20
2023/03/29 10:51:22;;;;;;;;;;;;;;;27.85;21.02;101105.97;5097215;28;1094;-20
2023/03/29 10:53:48;;;;;;;;;;;;;;;27.46;21.70;101102.28;5095558;28;1093;-20
2023/03/29 10:56:23;;;;;;;;;;;;;;;27.56;21.55;101104.78;5085668;28;1178;-20
2023/03/29 10:58:51;;;;;;;;;;;;;;;27.61;22.33;101097.78;5097888;28;1545;-20
2023/03/29 11:01:19;;;;;;;;;;;;;;;27.91;22.22;101088.19;5097467;28;1045;-21
2023/03/29 11:03:45;;;;;;;;;;;;;;;27.56;22.80;101085.84;5094548;28;1448;-19
2023/03/29 11:06:18;;;;;;;;;;;;;;;27.32;20.76;101104.72;5088839;28;1913;-20
2023/03/29 11:08:46;;;;;;;;;;;;;;;27.29;21.90;101104.22;5076815;28;1117;-19
2023/03/29 11:11:19;;;;;;;;;;;;;;;26.65;23.25;101110.28;5083028;28;1075;-20
2023/03/29 11:14:00;;;;;;;;;;;;;;;26.99;22.82;101112.91;5061134;28;1345;-21
2023/03/29 11:16:28;;;;;;;;;;;;;;;27.90;21.65;101100.88;5085371;28;1206;-22
2023/03/29 11:19:03;;;;;;;;;;;;;;;27.56;22.15;101108.28;5059089;28;849;-19
2023/03/29 11:21:48;;;;;;;;;;;;;;;27.51;22.11;101102.56;5076752;28;1034;-20
2023/03/29 11:24:20;;;;;;;;;;;;;;;27.75;21.44;101101.66;5080804;28;1906;-22
2023/03/29 11:26:58;;;;;;;;;;;;;;;27.65;20.85;101092.03;5094835;28;1383;-19
2023/03/29 11:29:27;;;;;;;;;;;;;;;28.27;19.37;101092.13;5097100;28;1111;-19
2023/03/29 11:32:18;;;;;;;;;;;;;;;27.98;19.19;101100.81;5087643;28;937;-18
2023/03/29 11:34:54;;;;;;;;;;;;;;;27.93;18.09;101099.66;5081188;28;1361;-18
2023/03/29 11:37:27;;;;;;;;;;;;;;;28.05;18.06;101090.09;5068754;28;1162;-21
2023/03/29 11:40:12;;;;;;;;;;;;;;;28.24;18.18;101083.34;5073847;28;1322;-21
2023/03/29 11:42:38;;;;;;;;;;;;;;;28.03;19.18;101075.91;5092956;28;1033;-21
2023/03/29 11:45:04;;;;;;;;;;;;;;;27.88;19.35;101081.28;5073282;28;1897;-21
2023/03/29 11:47:35;;;;;;;;;;;;;;;27.82;19.01;101090.09;5077006;28;1039;-21
2023/03/29 11:50:17;;;;;;;;;;;;;;;27.54;19.26;101079.78;5087369;28;1241;-21
2023/03/29 11:52:44;;;;;;;;;;;;;;;27.75;18.50;101076.47;5096758;28;1062;-21
2023/03/29 11:55:15;;;;;;;;;;;;;;;27.74;19.66;101085.59;5083855;28;1120;-21
2023/03/29 11:57:41;;;;;;;;;;;;;;;27.41;19.76;101088.47;5090399;28;1170;-22
2023/03/29 12:00:11;;;;;;;;;;;;;;;27.68;19.62;101084.44;5084997;28;1077;-21
2023/03/29 12:02:46;;;;;;;;;;;;;;;27.84;19.25;101075.38;5077388;28;1422;-21
2023/03/29 12:05:22;;;;;;;;;;;;;;;27.58;19.93;101078.38;5060181;28;1906;-21
2023/03/29 12:07:49;;;;;;;;;;;;;;;27.30;20.09;101084.28;5070326;28;1035;-18
2023/03/29 12:10:22;;;;;;;;;;;;;;;27.59;19.14;101083.63;5072967;28;1475;-21
2023/03/29 12:12:48;;;;;;;;;;;;;;;27.48;19.25;101079.47;5093215;28;912;-20
2023/03/29 12:15:20;;;;;;;;;;;;;;;27.73;19.32;101082.06;5087630;28;1209;-21
2023/03/29 12:17:48;;;;;;;;;;;;;;;27.83;19.45;101083.66;5061645;28;1107;-22
2023/03/29 12:20:22;;;;;;;;;;;;;;;27.63;19.61;101081.41;5078037;28;1205;-22
2023/03/29 12:22:49;;;;;;;;;;;;;;;27.59;19.23;101080.09;5078723;28;1404;-19
2023/03/29 12:25:16;;;;;;;;;;;;;;;27.74;19.38;101081.03;5095910;28;1973;-20
2023/03/29 12:27:54;;;;;;;;;;;;;;;28.11;19.47;101086.66;5061103;28;1291;-20
2023/03/29 12:30:34;;;;;;;;;;;;;;;27.56;20.54;101093.97;5087728;28;1150;-20
2023/03/29 12:33:00;;;;;;;;;;;;;;;27.26;21.17;101086.50;5071870;28;1091;-18
2023/03/29 12:35:53;;;;;;;;;;;;;;;27.70;21.05;101103.19;5063289;28;1055;-18
2023/03/29 12:38:56;;;;;;;;;;;;;;;27.84;19.92;101078.06;5014229;28;1218;-18
2023/03/29 12:41:44;;;;;;;;;;;;;;;27.43;20.60;101111.56;5014322;28;1095;-20
2023/03/29 12:44:28;;;;;;;;;;;;;;;27.06;20.93;101132.00;5054717;28;1972;-18
2023/03/29 12:46:59;;;;;;;;;;;;;;;27.34;20.78;101145.88;5072677;28;1082;-18
2023/03/29 12:49:34;;;;;;;;;;;;;;;27.39;20.60;101139.97;5070301;28;1130;-19
2023/03/29 12:52:01;;;;;;;;;;;;;;;27.76;19.71;101159.22;5071282;28;1082;-18
2023/03/29 12:54:27;;;;;;;;;;;;;;;26.93;20.29;101171.13;5082901;28;1039;-18
2023/03/29 12:56:54;;;;;;;;;;;;;;;26.43;21.73;101179.25;5091963;28;976;-18
2023/03/29 12:59:38;;;;;;;;;;;;;;;27.30;21.52;101201.28;5082178;28;1241;-18
2023/03/29 13:02:13;;;;;;;;;;;;;;;27.53;21.97;101213.22;5090662;28;1228;-20
2023/03/29 13:04:42;;;;;;;;;;;;;;;27.60;22.01;101219.59;5091308;28;1909;-18
2023/03/29 13:07:31;;;;;;;;;;;;;;;27.03;22.10;101214.16;5095443;28;1058;-15
2023/03/29 13:09:57;;;;;;;;;;;;;;;27.39;22.70;101213.75;5082388;28;1601;-17
2023/03/29 13:12:23;;;;;;;;;;;;;;;27.62;22.72;101204.91;5093184;28;1426;-17